createdAt,value
2022-12-06T00:06:01.115Z,88.99
2022-12-06T00:20:51.737Z,89.83
2022-12-06T00:35:42.204Z,90.27
2022-12-06T00:50:34.505Z,90.88
2022-12-06T01:05:25.382Z,90.61
2022-12-06T01:20:16.871Z,90.91
2022-12-06T01:35:07.398Z,91.13
2022-12-06T01:50:11.895Z,91.63
2022-12-06T02:05:09.656Z,92.41
2022-12-06T02:20:21.896Z,92.60
2022-12-06T02:35:30.769Z,92.61
2022-12-06T02:50:27.236Z,92.20
2022-12-06T03:05:17.683Z,91.91
2022-12-06T03:20:09.112Z,92.47
2022-12-06T03:35:01.841Z,92.63
2022-12-06T03:49:58.949Z,92.27
2022-12-06T04:19:52.282Z,92.25
2022-12-06T04:34:59.602Z,91.77
2022-12-06T04:49:57.248Z,93.27
2022-12-06T05:04:49.867Z,94.38
2022-12-06T05:19:40.277Z,95.21
2022-12-06T05:34:33.264Z,96.25
2022-12-06T05:49:23.524Z,96.95
2022-12-06T06:04:13.959Z,97.24
2022-12-06T06:19:06.541Z,97.94
2022-12-06T06:33:57.440Z,98.17
2022-12-06T06:48:48.367Z,98.71
2022-12-06T07:03:39.300Z,98.37
2022-12-06T07:18:32.629Z,98.47
2022-12-06T07:33:21.644Z,99.40
2022-12-06T07:48:11.526Z,100.00
2022-12-06T08:03:02.828Z,99.21
2022-12-06T08:17:52.771Z,95.69
2022-12-06T08:32:44.241Z,94.05
2022-12-06T08:47:35.212Z,91.53
2022-12-06T09:02:25.583Z,91.13
2022-12-06T09:17:16.403Z,90.68
2022-12-06T09:32:07.815Z,90.18
2022-12-06T09:47:23.645Z,89.91
2022-12-06T10:02:25.588Z,88.15
2022-12-06T10:17:28.203Z,88.43
2022-12-06T10:32:38.577Z,88.69
2022-12-06T10:47:33.161Z,88.72
2022-12-06T11:02:26.895Z,86.89
2022-12-06T11:17:19.874Z,84.42
2022-12-06T11:47:11.209Z,85.22
2022-12-06T12:02:04.913Z,85.00
2022-12-06T12:16:59.060Z,83.68
2022-12-06T12:31:56.436Z,83.86
2022-12-06T12:46:58.789Z,84.13
2022-12-06T13:17:27.995Z,83.83
2022-12-06T13:32:21.831Z,83.73
2022-12-06T13:47:28.570Z,83.27
2022-12-06T14:02:40.703Z,84.60
2022-12-06T14:18:00.642Z,84.04
2022-12-06T14:32:37.263Z,85.48
2022-12-06T14:47:31.487Z,86.79
2022-12-06T15:02:24.635Z,87.39
2022-12-06T15:17:17.597Z,87.13
2022-12-06T15:32:11.105Z,87.54
2022-12-06T15:47:01.894Z,87.96
2022-12-06T16:01:52.151Z,87.79
2022-12-06T16:16:43.694Z,88.00
2022-12-06T16:31:38.336Z,88.14
2022-12-06T16:46:26.537Z,87.87
2022-12-06T17:01:20.130Z,87.38
2022-12-06T17:16:10.800Z,87.62
2022-12-06T17:31:01.309Z,88.12
2022-12-06T17:45:51.923Z,88.23
2022-12-06T18:00:44.116Z,87.88
2022-12-06T18:15:38.574Z,87.82
2022-12-06T18:30:31.959Z,87.62
2022-12-06T18:45:22.588Z,87.64
2022-12-06T19:00:29.834Z,87.91
2022-12-06T19:15:17.651Z,88.14
2022-12-06T19:30:08.760Z,88.09
2022-12-06T19:44:59.872Z,88.25
2022-12-06T19:59:50.935Z,88.14
2022-12-06T20:14:41.855Z,88.28
2022-12-06T20:29:35.061Z,88.49
2022-12-06T20:44:25.100Z,88.57
2022-12-06T20:59:15.402Z,88.72
2022-12-06T21:14:06.068Z,88.87
2022-12-06T21:28:56.478Z,89.24
2022-12-06T21:43:48.835Z,89.48
2022-12-06T21:58:39.175Z,89.67
2022-12-06T22:13:32.434Z,89.43
2022-12-06T22:28:24.736Z,89.24
2022-12-06T22:43:14.200Z,89.56
2022-12-06T22:58:04.670Z,90.03
2022-12-06T23:12:55.968Z,90.44
2022-12-06T23:27:48.220Z,90.94
2022-12-06T23:42:38.918Z,91.46
2022-12-06T23:57:29.671Z,91.71
